createdAt,value
2019-05-16T00:09:28.708Z,9
2019-05-16T00:19:32.178Z,9.2
2019-05-16T00:29:35.620Z,9.3
2019-05-16T00:39:41.663Z,9.4
2019-05-16T00:49:45.134Z,9.2
2019-05-16T00:59:51.142Z,9.2
2019-05-16T01:09:54.560Z,8.7
2019-05-16T01:19:58.034Z,9.1
2019-05-16T01:30:01.516Z,8.9
2019-05-16T01:40:04.981Z,9
2019-05-16T01:50:08.778Z,8.9
2019-05-16T02:00:12.418Z,8.9
2019-05-16T02:10:17.886Z,8.2
2019-05-16T02:20:21.670Z,8.5
2019-05-16T02:30:25.135Z,8
2019-05-16T02:40:31.155Z,8.6
2019-05-16T02:50:34.996Z,8.7
2019-05-16T03:00:41.865Z,8.6
2019-05-16T03:10:46.498Z,8.5
2019-05-16T03:20:50.942Z,8.5
2019-05-16T03:30:55.169Z,8.6
2019-05-16T03:41:00.942Z,8.3
2019-05-16T03:51:04.636Z,8.1
2019-05-16T04:01:11.081Z,8.2
2019-05-16T04:11:18.394Z,8.2
2019-05-16T04:21:27.159Z,8.3
2019-05-16T04:31:31.095Z,8.4
2019-05-16T04:41:34.604Z,8.4
2019-05-16T04:51:41.120Z,8.5
2019-05-16T05:01:45.163Z,8.4
2019-05-16T05:11:51.680Z,8.8
2019-05-16T05:21:55.619Z,9.1
2019-05-16T05:32:04.153Z,9
2019-05-16T05:42:10.491Z,9.2
2019-05-16T05:52:14.088Z,9.4
2019-05-16T06:02:19.996Z,10.9
2019-05-16T06:12:23.708Z,12.5
2019-05-16T06:22:29.642Z,11.4
2019-05-16T06:32:33.382Z,11.4
2019-05-16T06:42:36.831Z,11.8
2019-05-16T06:52:40.807Z,12.2
2019-05-16T07:02:44.469Z,12.4
2019-05-16T07:12:50.165Z,12
2019-05-16T07:22:53.941Z,13
2019-05-16T07:32:57.426Z,12.2
2019-05-16T07:43:00.831Z,12
2019-05-16T07:53:04.249Z,12.3
2019-05-16T08:03:10.299Z,13.2
2019-05-16T08:13:17.502Z,13.1
2019-05-16T08:23:24.731Z,13
2019-05-16T08:33:31.189Z,12.3
2019-05-16T08:43:35.670Z,12.4
2019-05-16T08:53:43.220Z,11.9
2019-05-16T09:03:47.187Z,12
2019-05-16T09:13:50.733Z,12
2019-05-16T09:23:54.214Z,12
2019-05-16T09:33:57.648Z,12
2019-05-16T09:44:01.038Z,12.1
2019-05-16T09:54:07.104Z,12.2
2019-05-16T10:04:10.806Z,12.5
2019-05-16T10:14:14.273Z,12.7
2019-05-16T10:24:17.711Z,13.3
2019-05-16T10:34:21.171Z,13.1
2019-05-16T10:44:24.614Z,12.7
2019-05-16T10:54:31.994Z,13.3
2019-05-16T11:04:50.595Z,13.6
2019-05-16T11:15:39.240Z,13.5
2019-05-16T11:25:42.680Z,13.6
2019-05-16T11:35:47.519Z,13.4
2019-05-16T11:45:51.247Z,13.1
2019-05-16T11:55:59.911Z,13
2019-05-16T12:06:10.222Z,13.2
2019-05-16T12:16:18.125Z,13.7
2019-05-16T12:26:22.487Z,13.5
2019-05-16T12:36:26.746Z,13.5
2019-05-16T12:46:30.339Z,14
2019-05-16T12:56:33.853Z,14.5
2019-05-16T13:06:37.319Z,14.5
2019-05-16T13:16:40.800Z,14.5
2019-05-16T13:26:44.254Z,14.7
2019-05-16T13:36:47.796Z,14.7
2019-05-16T13:46:51.310Z,14.8
2019-05-16T13:56:57.065Z,14.6
2019-05-16T14:07:00.834Z,14.3
2019-05-16T14:17:09.993Z,14.6
2019-05-16T14:27:21.306Z,14.7
2019-05-16T14:37:26.813Z,14.9
2019-05-16T14:47:30.354Z,14.7
2019-05-16T14:57:33.797Z,14.6
2019-05-16T15:07:39.955Z,14.6
2019-05-16T15:17:43.415Z,14.7
2019-05-16T15:27:47.772Z,14.7
2019-05-16T15:37:51.435Z,14.6
2019-05-16T15:47:59.403Z,15
2019-05-16T15:58:03.360Z,14.9
2019-05-16T16:08:07.068Z,14.6
2019-05-16T16:18:10.527Z,14.8
2019-05-16T16:28:14.004Z,14.6
2019-05-16T16:38:17.457Z,14.5
2019-05-16T16:48:20.928Z,14.3
2019-05-16T16:58:26.404Z,14.4
2019-05-16T17:08:30.469Z,14.4
2019-05-16T17:18:33.922Z,14.4
2019-05-16T17:28:40.120Z,14.3
2019-05-16T17:38:43.577Z,14.1
2019-05-16T17:48:47.060Z,14.2
2019-05-16T17:58:50.497Z,13.9
2019-05-16T18:08:53.912Z,13.9
2019-05-16T18:18:57.609Z,13.8
2019-05-16T18:29:01.100Z,13.7
2019-05-16T18:39:06.401Z,13.5
2019-05-16T18:49:10.070Z,13.2
2019-05-16T18:59:13.553Z,12.8
2019-05-16T19:09:17.000Z,12.7
2019-05-16T19:19:20.458Z,12.7
2019-05-16T19:29:26.283Z,12.3
2019-05-16T19:39:29.917Z,12.5
2019-05-16T19:49:33.396Z,12.4
2019-05-16T19:59:36.868Z,12.9
2019-05-16T20:09:40.337Z,13
2019-05-16T20:19:43.780Z,12.9
2019-05-16T20:29:47.478Z,12.4
2019-05-16T20:39:50.999Z,12.4
2019-05-16T20:49:56.849Z,12.4
2019-05-16T21:00:00.499Z,11.6
2019-05-16T21:10:03.952Z,12
2019-05-16T21:20:07.733Z,12
2019-05-16T21:30:11.252Z,12
2019-05-16T21:40:16.885Z,11.9
2019-05-16T21:50:20.464Z,11.8
2019-05-16T22:00:26.455Z,11.7
2019-05-16T22:10:30.031Z,11.6
2019-05-16T22:20:33.502Z,11.4
2019-05-16T22:30:36.962Z,11.4
2019-05-16T22:40:40.419Z,11.3
2019-05-16T22:50:43.899Z,11.1
2019-05-16T23:00:47.332Z,11
2019-05-16T23:10:50.801Z,11
2019-05-16T23:20:54.228Z,10.9
2019-05-16T23:31:00.385Z,10.8
2019-05-16T23:41:06.340Z,10.7
2019-05-16T23:51:10.277Z,10.7
